Terminal Aerodrome Forecast
Issued by NWS Green Bay, WI

Home | Current Version | Previous Version | Text Only | Print | Product List | Glossary Off
Versions: 1 2 3 4 5 6 7 8 9 10 11 12 13 14 15 16 17 18 19 20 21 22 23 24 25 26 27 28 29 30

000
FTUS43 KGRB 211602 AAA
TAFGRB
TAF AMD
KGRB 211602Z 2116/2212 09005KT 1/4SM FG VCSH VV002
      TEMPO 2118/2122 3/4SM -DZ BR OVC003
     FM212200 14005KT 1/2SM -DZ FG OVC003
     FM220600 VRB03KT 1/4SM FG OVC003=

USA.gov is the U.S. government's official web portal to all federal, state and local government web resources and services.